Yu Xian, China
Current Conditions -  °F | °C
As of 2:00 AM on Wednesday 22 Oct 2014 (Local Time) from ZBSJ Reporting Station
Clear Clear  
Wind Chill: 55°   Ceiling: Unl
Heat Index: 55°   Visibility: 6mi
Dew Point: 48°   Wind: 2mph
Humidity: 77%   Direction: 130°SE
Pressure: 30.24"   Gusts: NA
Location:  39.83°N, 114.57°E
Report Text: ZBSJ 211800Z 13001MPS CAVOK 13/09 Q1024 NOSIG
Loading
Personal Weather Stations






























Interactive Weather Map
Tropical Storm Tracking
New forecast layout! Learn more

10-Day Weather Forecast

Advertisements
Track Severe Weather on mobile